Bergerac-Roumanière


Bulletin



L'aéroport de Bergerac-Roumanière (France) a édité ce bulletin météorologique il y a 17 minutes, à 20:00 Europe/Paris (18H00 UTC)
La température est de 18 °C, avec un point de rosée à 8 °C.
L'humidite relative est de 52.03 %.
La pression au niveau de la mer est de 1011 hPa.
Le vent souffle à une vitesse de 15 km/h du NNO (350°).


Message METAR

LFBE 181800Z AUTO 35008KT 9999 NSC 18/08 Q1011
Récupérer le message au format XML
Récupérer le message au format JSON


Observations sur 24h




Date (Locale) Temp. (°C) Point rosée (°C) Pression (hPa) Direction vent Vitesse (km/h)
20:00 18/04/2014 18 8 1011 NNO 15
19:00 18/04/2014 20 5 1011 NO 19
18:00 18/04/2014 21 6 1012 NO 20
17:00 18/04/2014 21 8 1012 ONO 22
16:30 18/04/2014 21 8 1012 ONO 19
15:30 18/04/2014 21 10 1013 OSO 15
14:00 18/04/2014 19 9 1014 O 11
13:00 18/04/2014 18 10 1015 O 7
12:00 18/04/2014 15 9 1016 N 4
11:00 18/04/2014 11 8 1016 N 0
09:00 18/04/2014 7 7 1016 N 0
08:00 18/04/2014 4 4 1016 N 0
07:00 18/04/2014 3 2 1016 N 0
05:00 18/04/2014 3 3 1017 N 0
04:00 18/04/2014 4 3 1017 N 0
03:00 18/04/2014 5 3 1017 N 2
02:30 18/04/2014 6 3 1017 N 0
01:00 18/04/2014 7 4 1017 N 4
00:00 18/04/2014 9 4 1018 O 6
23:00 17/04/2014 10 5 1018 OSO 7
22:30 17/04/2014 12 4 1018 OSO 6
21:30 17/04/2014 14 4 1017 O 11
Les données de cette page proviennent des messages METAR de la NOAA